Time;durP1;ratioP1;P1;durP2;ratioP2;P2;SDS_P1;SDS_P2;PMS_P1;PMS_P2;Temp;Humidity;BMP_temperature;BMP_pressure;BME280_temperature;BME280_humidity;BME280_pressure;Samples;Min_cycle;Max_cycle;Signal;HPM_P1;HPM_P2
2023/10/26 00:01:27;;;;;;;15.73;5.38;;;;;;;;;;5102917;28;20050;-72
2023/10/26 00:04:13;;;;;;;21.38;6.15;;;;;;;;;;5118535;28;20027;-72
2023/10/26 00:07:00;;;;;;;22.83;5.80;;;;;;;;;;5117906;28;20030;-72
2023/10/26 00:09:46;;;;;;;18.98;5.47;;;;;;;;;;5117156;28;20023;-72
2023/10/26 00:12:31;;;;;;;20.45;5.50;;;;;;;;;;5103369;28;20053;-71
2023/10/26 00:15:17;;;;;;;22.58;5.55;;;;;;;;;;5118136;28;20024;-73
2023/10/26 00:18:03;;;;;;;17.55;6.22;;;;;;;;;;5102788;28;20043;-71
2023/10/26 00:20:49;;;;;;;21.13;5.57;;;;;;;;;;5105088;28;20028;-72
2023/10/26 00:23:34;;;;;;;17.90;5.88;;;;;;;;;;5117725;28;20359;-72
2023/10/26 00:26:20;;;;;;;20.05;6.18;;;;;;;;;;5117256;28;20027;-72
2023/10/26 00:29:06;;;;;;;20.63;6.78;;;;;;;;;;5117765;28;20034;-72
2023/10/26 00:31:51;;;;;;;21.80;5.82;;;;;;;;;;5118480;28;20133;-72
2023/10/26 00:34:37;;;;;;;16.88;5.65;;;;;;;;;;5116709;28;20035;-71
2023/10/26 00:37:22;;;;;;;15.75;5.75;;;;;;;;;;5118868;27;20020;-71
2023/10/26 00:40:08;;;;;;;21.25;5.90;;;;;;;;;;5117861;28;20019;-71
2023/10/26 00:43:00;;;;;;;21.35;6.32;;;;;;;;;;5118044;28;20012;-72
2023/10/26 00:45:47;;;;;;;21.70;5.88;;;;;;;;;;5118604;27;20386;-72
2023/10/26 00:48:32;;;;;;;20.58;6.22;;;;;;;;;;5103684;27;20037;-72
2023/10/26 00:51:18;;;;;;;24.17;6.97;;;;;;;;;;5116650;28;20050;-72
2023/10/26 00:54:04;;;;;;;22.30;5.95;;;;;;;;;;5117092;28;20051;-72
2023/10/26 00:56:50;;;;;;;24.90;6.07;;;;;;;;;;5118791;27;20467;-72
2023/10/26 00:59:38;;;;;;;22.75;7.10;;;;;;;;;;5117676;28;20440;-71
2023/10/26 01:02:25;;;;;;;17.60;6.05;;;;;;;;;;5101116;28;20031;-71
2023/10/26 01:05:10;;;;;;;29.67;6.22;;;;;;;;;;5116472;28;20034;-72
2023/10/26 01:07:57;;;;;;;28.50;6.10;;;;;;;;;;5118495;27;20098;-71
2023/10/26 01:10:42;;;;;;;19.35;6.43;;;;;;;;;;5116574;28;20012;-71
2023/10/26 01:13:29;;;;;;;29.08;6.95;;;;;;;;;;5103060;28;20352;-71
2023/10/26 01:16:15;;;;;;;22.73;5.80;;;;;;;;;;5116703;28;20092;-71
2023/10/26 01:19:02;;;;;;;29.00;6.40;;;;;;;;;;5102079;28;20084;-71
2023/10/26 01:21:48;;;;;;;19.60;5.70;;;;;;;;;;5116315;28;20019;-71
2023/10/26 01:24:33;;;;;;;25.45;5.93;;;;;;;;;;5118114;28;20038;-71
2023/10/26 01:27:19;;;;;;;24.95;6.30;;;;;;;;;;5117672;28;20321;-71
2023/10/26 01:30:05;;;;;;;25.55;6.07;;;;;;;;;;5117296;28;20408;-71
2023/10/26 01:32:51;;;;;;;21.55;5.63;;;;;;;;;;5118343;28;20445;-71
2023/10/26 01:35:38;;;;;;;17.40;5.30;;;;;;;;;;5116149;28;20102;-71
2023/10/26 01:38:23;;;;;;;28.00;6.47;;;;;;;;;;5117717;28;20458;-72
2023/10/26 01:41:09;;;;;;;20.38;5.68;;;;;;;;;;5116737;28;20084;-72
2023/10/26 01:43:55;;;;;;;21.20;5.50;;;;;;;;;;5117373;28;20022;-72
2023/10/26 01:46:40;;;;;;;22.35;6.03;;;;;;;;;;5117085;28;20012;-72
2023/10/26 01:49:26;;;;;;;24.05;5.88;;;;;;;;;;5115930;28;20015;-73
2023/10/26 01:52:11;;;;;;;17.10;5.15;;;;;;;;;;5100851;28;20036;-72
2023/10/26 01:54:57;;;;;;;26.73;6.07;;;;;;;;;;5101074;28;20081;-71
2023/10/26 01:57:43;;;;;;;19.25;6.13;;;;;;;;;;5115945;28;20020;-71
2023/10/26 02:00:28;;;;;;;19.42;5.57;;;;;;;;;;5115480;28;20116;-72
2023/10/26 02:03:15;;;;;;;25.85;5.60;;;;;;;;;;5115970;28;20007;-72
2023/10/26 02:06:04;;;;;;;25.40;6.60;;;;;;;;;;5102057;28;20058;-72
2023/10/26 02:08:49;;;;;;;21.95;6.00;;;;;;;;;;5115983;28;20361;-72
2023/10/26 02:11:35;;;;;;;23.02;6.00;;;;;;;;;;5116936;28;20321;-70
2023/10/26 02:14:21;;;;;;;24.00;6.32;;;;;;;;;;5116789;28;20448;-72
2023/10/26 02:17:06;;;;;;;26.15;5.63;;;;;;;;;;5115751;28;20035;-72
2023/10/26 02:19:52;;;;;;;23.05;5.90;;;;;;;;;;5115662;28;20104;-71
2023/10/26 02:22:37;;;;;;;24.58;6.40;;;;;;;;;;5100680;28;20482;-72
2023/10/26 02:25:23;;;;;;;21.65;5.57;;;;;;;;;;5115633;28;20102;-72
2023/10/26 02:28:13;;;;;;;20.95;6.05;;;;;;;;;;5115577;28;20088;-72
2023/10/26 02:31:00;;;;;;;25.77;5.43;;;;;;;;;;5116484;28;20074;-71
2023/10/26 02:33:45;;;;;;;22.75;5.28;;;;;;;;;;5115535;28;20027;-72
2023/10/26 02:36:31;;;;;;;16.00;5.35;;;;;;;;;;5100640;28;20024;-73
2023/10/26 02:39:16;;;;;;;16.98;6.57;;;;;;;;;;5115896;28;20020;-72
2023/10/26 02:42:02;;;;;;;24.50;5.88;;;;;;;;;;5100449;28;20102;-71
2023/10/26 02:44:48;;;;;;;22.08;5.53;;;;;;;;;;5116189;28;20047;-71
2023/10/26 02:47:33;;;;;;;30.50;6.80;;;;;;;;;;5114838;28;20550;-71
2023/10/26 02:50:19;;;;;;;19.55;5.60;;;;;;;;;;5115739;27;20028;-71
2023/10/26 02:53:04;;;;;;;20.90;5.47;;;;;;;;;;5114741;28;20064;-71
2023/10/26 02:55:50;;;;;;;23.80;6.18;;;;;;;;;;5101004;28;20024;-71
2023/10/26 02:58:36;;;;;;;19.63;6.53;;;;;;;;;;5116066;28;20030;-72
2023/10/26 03:01:21;;;;;;;21.02;5.80;;;;;;;;;;5100496;28;20466;-72
2023/10/26 03:04:07;;;;;;;24.55;6.75;;;;;;;;;;5116283;27;20019;-72
2023/10/26 03:06:52;;;;;;;16.20;6.13;;;;;;;;;;5115136;28;20102;-70
2023/10/26 03:09:38;;;;;;;20.80;6.13;;;;;;;;;;5114575;28;20023;-71
2023/10/26 03:12:23;;;;;;;23.17;5.75;;;;;;;;;;5099473;28;20585;-71
2023/10/26 03:15:09;;;;;;;25.52;6.47;;;;;;;;;;5115586;28;20032;-70
2023/10/26 03:17:55;;;;;;;23.85;5.90;;;;;;;;;;5114338;28;20114;-72
2023/10/26 03:20:40;;;;;;;24.92;6.53;;;;;;;;;;5113736;28;20023;-72
2023/10/26 03:23:26;;;;;;;23.45;6.07;;;;;;;;;;5114643;28;20454;-71
2023/10/26 03:26:11;;;;;;;20.73;6.00;;;;;;;;;;5114353;28;20431;-72
2023/10/26 03:28:57;;;;;;;26.15;6.43;;;;;;;;;;5100832;28;20089;-71
2023/10/26 03:31:43;;;;;;;21.70;6.32;;;;;;;;;;5114106;28;20360;-71
2023/10/26 03:34:30;;;;;;;16.98;5.95;;;;;;;;;;5100661;28;20015;-71
2023/10/26 03:37:16;;;;;;;26.58;6.35;;;;;;;;;;5100168;28;20099;-71
2023/10/26 03:40:02;;;;;;;20.02;5.57;;;;;;;;;;5115072;28;20545;-71
2023/10/26 03:42:48;;;;;;;21.33;5.40;;;;;;;;;;5114160;28;20019;-70
2023/10/26 03:45:34;;;;;;;21.05;6.05;;;;;;;;;;5114831;28;20011;-70
2023/10/26 03:48:19;;;;;;;24.55;6.63;;;;;;;;;;5102188;28;20030;-71
2023/10/26 03:51:05;;;;;;;21.10;5.35;;;;;;;;;;5114817;28;20500;-71
2023/10/26 03:53:50;;;;;;;23.45;5.60;;;;;;;;;;5100951;28;20042;-71
2023/10/26 03:56:36;;;;;;;19.42;5.55;;;;;;;;;;5114346;28;20030;-70
2023/10/26 03:59:21;;;;;;;16.00;5.85;;;;;;;;;;5114191;28;20074;-71
2023/10/26 04:02:07;;;;;;;23.00;5.60;;;;;;;;;;5100966;28;20440;-70
2023/10/26 04:04:53;;;;;;;21.02;6.20;;;;;;;;;;5115501;28;20038;-71
2023/10/26 04:07:39;;;;;;;22.55;6.70;;;;;;;;;;5115538;28;20095;-70
2023/10/26 04:10:25;;;;;;;21.63;5.90;;;;;;;;;;5114136;28;20024;-69
2023/10/26 04:13:10;;;;;;;20.90;5.47;;;;;;;;;;5115543;27;20106;-72
2023/10/26 04:16:02;;;;;;;20.63;4.88;;;;;;;;;;5114311;28;20042;-71
2023/10/26 04:18:47;;;;;;;21.60;5.53;;;;;;;;;;5114074;28;20024;-71
2023/10/26 04:21:33;;;;;;;24.98;5.43;;;;;;;;;;5114692;28;20024;-72
2023/10/26 04:24:19;;;;;;;22.58;5.65;;;;;;;;;;5113949;28;20420;-71
2023/10/26 04:27:04;;;;;;;20.67;6.05;;;;;;;;;;5114677;28;20459;-71
2023/10/26 04:29:50;;;;;;;20.35;6.15;;;;;;;;;;5114453;28;20028;-70
2023/10/26 04:32:35;;;;;;;19.05;5.30;;;;;;;;;;5114828;28;20062;-70
2023/10/26 04:35:21;;;;;;;19.08;5.95;;;;;;;;;;5100198;28;20505;-71
2023/10/26 04:38:08;;;;;;;22.08;5.47;;;;;;;;;;5118361;28;20501;-72
2023/10/26 04:40:53;;;;;;;26.08;5.72;;;;;;;;;;5119193;28;20027;-72
2023/10/26 04:43:39;;;;;;;26.52;5.38;;;;;;;;;;5104052;28;20030;-71
2023/10/26 04:46:25;;;;;;;22.35;5.90;;;;;;;;;;5118041;28;20016;-71
2023/10/26 04:49:10;;;;;;;18.77;6.43;;;;;;;;;;5117281;28;20364;-70
2023/10/26 04:51:56;;;;;;;28.25;6.50;;;;;;;;;;5117236;28;20052;-71
2023/10/26 04:54:41;;;;;;;21.38;5.32;;;;;;;;;;5117133;28;20019;-71
2023/10/26 04:57:27;;;;;;;25.02;6.75;;;;;;;;;;5117930;28;20462;-70
2023/10/26 05:00:13;;;;;;;23.90;6.72;;;;;;;;;;5116427;28;20032;-70
2023/10/26 05:02:58;;;;;;;24.90;5.75;;;;;;;;;;5116508;28;20076;-72
2023/10/26 05:05:44;;;;;;;21.88;5.25;;;;;;;;;;5118068;28;20419;-70
2023/10/26 05:08:29;;;;;;;25.05;5.10;;;;;;;;;;5101435;28;20497;-71
2023/10/26 05:11:15;;;;;;;24.27;5.47;;;;;;;;;;5102292;28;20034;-71
2023/10/26 05:14:03;;;;;;;27.55;7.15;;;;;;;;;;5117155;28;20020;-69
2023/10/26 05:16:50;;;;;;;20.02;5.25;;;;;;;;;;5117448;28;20038;-71
2023/10/26 05:19:35;;;;;;;28.50;6.15;;;;;;;;;;5116376;28;20055;-71
2023/10/26 05:22:21;;;;;;;20.85;4.88;;;;;;;;;;5117185;28;20008;-70
2023/10/26 05:25:10;;;;;;;24.92;5.70;;;;;;;;;;5101304;28;20095;-71
2023/10/26 05:27:56;;;;;;;21.10;5.38;;;;;;;;;;5116121;28;20020;-71
2023/10/26 05:30:41;;;;;;;23.55;5.35;;;;;;;;;;5116564;28;20015;-71
2023/10/26 05:33:27;;;;;;;21.02;5.35;;;;;;;;;;5117078;28;20099;-72
2023/10/26 05:36:13;;;;;;;23.15;5.30;;;;;;;;;;5116691;28;20035;-72
2023/10/26 05:38:58;;;;;;;26.30;6.15;;;;;;;;;;5101360;28;20030;-71
2023/10/26 05:41:44;;;;;;;26.73;5.75;;;;;;;;;;5101086;28;20012;-71
2023/10/26 05:44:31;;;;;;;19.15;5.30;;;;;;;;;;5116419;28;20102;-71
2023/10/26 05:47:17;;;;;;;22.75;5.30;;;;;;;;;;5115096;28;20023;-71
2023/10/26 05:50:04;;;;;;;19.35;5.13;;;;;;;;;;5115059;27;20060;-70
2023/10/26 05:52:50;;;;;;;25.02;6.07;;;;;;;;;;5115872;28;20019;-72
2023/10/26 05:55:36;;;;;;;24.63;5.57;;;;;;;;;;5116724;28;20024;-71
2023/10/26 05:58:21;;;;;;;20.02;5.88;;;;;;;;;;5115329;28;20039;-70
2023/10/26 06:01:07;;;;;;;24.92;5.47;;;;;;;;;;5115186;28;20023;-72
2023/10/26 06:03:53;;;;;;;18.20;4.90;;;;;;;;;;5100975;28;20058;-70
2023/10/26 06:06:39;;;;;;;24.40;6.13;;;;;;;;;;5115303;28;20023;-70
2023/10/26 06:09:25;;;;;;;32.15;6.63;;;;;;;;;;5115982;28;20030;-70
2023/10/26 06:12:10;;;;;;;20.58;5.95;;;;;;;;;;5116298;28;20043;-70
2023/10/26 06:14:56;;;;;;;18.25;5.75;;;;;;;;;;5116636;28;20110;-71
2023/10/26 06:17:41;;;;;;;24.15;5.70;;;;;;;;;;5116606;28;20023;-70
2023/10/26 06:20:30;;;;;;;17.70;4.82;;;;;;;;;;5115455;28;20016;-71
2023/10/26 06:23:15;;;;;;;14.32;4.65;;;;;;;;;;5115260;28;20081;-71
2023/10/26 06:26:02;;;;;;;17.48;5.15;;;;;;;;;;5116093;28;20051;-70
2023/10/26 06:28:48;;;;;;;17.77;5.00;;;;;;;;;;5116387;28;20023;-70
2023/10/26 06:31:33;;;;;;;16.17;4.75;;;;;;;;;;5108935;28;20021;-73
2023/10/26 06:34:19;;;;;;;18.98;5.18;;;;;;;;;;5100903;28;20030;-70
2023/10/26 06:37:04;;;;;;;20.00;4.93;;;;;;;;;;5100463;28;20058;-70
2023/10/26 06:39:50;;;;;;;23.48;5.38;;;;;;;;;;5115959;28;20363;-70
2023/10/26 06:42:36;;;;;;;22.83;5.55;;;;;;;;;;5115336;28;20031;-72
2023/10/26 06:45:22;;;;;;;16.27;5.00;;;;;;;;;;5115066;28;20495;-70
2023/10/26 06:48:08;;;;;;;24.30;5.63;;;;;;;;;;5116059;28;20028;-70
2023/10/26 06:50:58;;;;;;;21.40;5.40;;;;;;;;;;5099184;28;20054;-71
2023/10/26 06:53:43;;;;;;;23.85;4.93;;;;;;;;;;5114740;28;20036;-72
2023/10/26 06:56:29;;;;;;;18.02;4.80;;;;;;;;;;5114345;28;20399;-71
2023/10/26 06:59:14;;;;;;;23.17;6.30;;;;;;;;;;5113579;28;20074;-71
2023/10/26 07:02:00;;;;;;;20.77;4.78;;;;;;;;;;5114866;28;20325;-69
2023/10/26 07:04:46;;;;;;;19.95;4.38;;;;;;;;;;5114623;28;20435;-71
2023/10/26 07:07:36;;;;;;;14.80;4.57;;;;;;;;;;5114969;28;20020;-71
2023/10/26 07:10:21;;;;;;;21.98;5.15;;;;;;;;;;5099957;28;20024;-71
2023/10/26 07:13:08;;;;;;;13.95;5.35;;;;;;;;;;5113892;28;20024;-71
2023/10/26 07:15:57;;;;;;;21.70;4.55;;;;;;;;;;5114997;28;20034;-71
2023/10/26 07:18:43;;;;;;;17.38;4.55;;;;;;;;;;5100778;28;20027;-71
2023/10/26 07:21:30;;;;;;;19.20;5.55;;;;;;;;;;5113934;28;20015;-71
2023/10/26 07:24:16;;;;;;;17.20;5.15;;;;;;;;;;5099311;28;20019;-74
2023/10/26 07:27:03;;;;;;;17.00;4.57;;;;;;;;;;5100092;28;20020;-71
2023/10/26 07:29:48;;;;;;;18.52;4.55;;;;;;;;;;5113940;28;20432;-73
2023/10/26 07:32:34;;;;;;;17.25;4.80;;;;;;;;;;5115353;28;20473;-71
2023/10/26 07:35:20;;;;;;;16.13;4.32;;;;;;;;;;5114671;28;20463;-71
2023/10/26 07:38:09;;;;;;;18.42;4.60;;;;;;;;;;5114611;28;20123;-70
2023/10/26 07:40:56;;;;;;;21.73;5.55;;;;;;;;;;5114252;28;20452;-71
2023/10/26 07:43:41;;;;;;;20.90;5.35;;;;;;;;;;5114107;28;20030;-69
2023/10/26 07:46:27;;;;;;;22.42;5.45;;;;;;;;;;5099544;28;20135;-70
2023/10/26 07:49:13;;;;;;;19.77;5.10;;;;;;;;;;5114047;28;20030;-71
2023/10/26 07:51:59;;;;;;;22.88;5.53;;;;;;;;;;5114014;28;20048;-69
2023/10/26 07:54:44;;;;;;;14.15;4.55;;;;;;;;;;5114406;28;20022;-70
2023/10/26 07:57:31;;;;;;;20.88;5.13;;;;;;;;;;5114572;28;20085;-71
2023/10/26 08:00:17;;;;;;;18.90;6.28;;;;;;;;;;5101068;28;20024;-70
2023/10/26 08:03:02;;;;;;;27.02;5.55;;;;;;;;;;5099984;28;20024;-70
2023/10/26 08:05:55;;;;;;;15.73;4.63;;;;;;;;;;5114467;28;20019;-70
2023/10/26 08:08:40;;;;;;;13.95;4.65;;;;;;;;;;5113574;28;20019;-71
2023/10/26 08:11:26;;;;;;;19.42;5.18;;;;;;;;;;5116459;28;20119;-69
2023/10/26 08:14:12;;;;;;;14.05;3.90;;;;;;;;;;5117805;28;20019;-70
2023/10/26 08:16:59;;;;;;;17.95;5.18;;;;;;;;;;5117989;28;20015;-71
2023/10/26 08:19:44;;;;;;;18.02;4.82;;;;;;;;;;5118334;28;20077;-70
2023/10/26 08:22:31;;;;;;;14.25;4.43;;;;;;;;;;5116938;28;20134;-71
2023/10/26 08:25:16;;;;;;;18.40;4.32;;;;;;;;;;5117967;28;20454;-71
2023/10/26 08:28:02;;;;;;;17.00;4.40;;;;;;;;;;5117043;28;20038;-70
2023/10/26 08:30:48;;;;;;;15.85;4.30;;;;;;;;;;5118977;27;20028;-69
2023/10/26 08:33:34;;;;;;;22.77;4.50;;;;;;;;;;5116960;28;20028;-69
2023/10/26 08:36:19;;;;;;;16.55;4.15;;;;;;;;;;5118216;28;20440;-70
2023/10/26 08:39:07;;;;;;;15.75;4.13;;;;;;;;;;5118055;28;20027;-71
2023/10/26 08:41:57;;;;;;;16.25;3.88;;;;;;;;;;5116778;28;20117;-71
2023/10/26 08:44:43;;;;;;;12.48;4.32;;;;;;;;;;5101955;28;20027;-70
2023/10/26 08:47:29;;;;;;;17.75;4.38;;;;;;;;;;5118200;28;20012;-70
2023/10/26 08:50:16;;;;;;;13.32;3.67;;;;;;;;;;5117998;28;20020;-70
2023/10/26 08:53:01;;;;;;;18.42;4.43;;;;;;;;;;5116959;28;20015;-69
2023/10/26 08:55:48;;;;;;;15.00;4.32;;;;;;;;;;5117821;28;20047;-70
2023/10/26 08:58:34;;;;;;;16.90;3.58;;;;;;;;;;5117687;28;20432;-70
2023/10/26 09:01:19;;;;;;;13.05;3.75;;;;;;;;;;5102344;28;20363;-70
2023/10/26 09:04:08;;;;;;;17.88;3.75;;;;;;;;;;5117624;28;20019;-70
2023/10/26 09:06:54;;;;;;;18.70;3.60;;;;;;;;;;5103255;28;20046;-69
2023/10/26 09:09:44;;;;;;;11.75;3.20;;;;;;;;;;5116613;28;20015;-69
2023/10/26 09:12:29;;;;;;;14.65;3.55;;;;;;;;;;5117711;28;20034;-70
2023/10/26 09:15:15;;;;;;;10.00;3.40;;;;;;;;;;5102100;28;20036;-68
2023/10/26 09:18:08;;;;;;;14.07;3.42;;;;;;;;;;5117420;28;20027;-69
2023/10/26 09:21:03;;;;;;;19.15;3.25;;;;;;;;;;5116592;28;20069;-72
2023/10/26 09:23:48;;;;;;;12.50;3.40;;;;;;;;;;5115978;28;20027;-70
2023/10/26 09:26:38;;;;;;;12.43;3.20;;;;;;;;;;5101819;28;20036;-71
2023/10/26 09:29:36;;;;;;;13.40;3.28;;;;;;;;;;5116991;28;20061;-72
2023/10/26 09:32:30;;;;;;;11.77;3.35;;;;;;;;;;5116678;28;20024;-71
2023/10/26 09:35:29;;;;;;;13.88;3.00;;;;;;;;;;5117051;28;20019;-70
2023/10/26 09:38:17;;;;;;;20.00;3.72;;;;;;;;;;5115515;28;20178;-71
2023/10/26 09:41:04;;;;;;;11.18;2.90;;;;;;;;;;5116844;28;20035;-70
2023/10/26 09:43:50;;;;;;;16.55;3.25;;;;;;;;;;5101959;28;20042;-69
2023/10/26 09:46:36;;;;;;;15.13;4.10;;;;;;;;;;5116118;28;20454;-70
2023/10/26 09:49:22;;;;;;;14.38;3.58;;;;;;;;;;5117008;28;20034;-71
2023/10/26 09:52:08;;;;;;;11.63;3.20;;;;;;;;;;5115291;28;20070;-70
2023/10/26 09:54:54;;;;;;;14.30;3.78;;;;;;;;;;5117416;27;20111;-71
2023/10/26 09:57:44;;;;;;;16.20;3.22;;;;;;;;;;5117718;28;20024;-70
2023/10/26 10:00:31;;;;;;;9.60;2.83;;;;;;;;;;5116122;28;20027;-71
2023/10/26 10:03:17;;;;;;;12.20;3.38;;;;;;;;;;5115092;28;20019;-71
2023/10/26 10:06:07;;;;;;;17.25;3.42;;;;;;;;;;5116776;28;20015;-71
2023/10/26 10:09:00;;;;;;;13.45;3.00;;;;;;;;;;5116003;28;20026;-70
2023/10/26 10:11:46;;;;;;;11.50;3.40;;;;;;;;;;5101449;28;20015;-69
2023/10/26 10:14:44;;;;;;;15.80;3.65;;;;;;;;;;5114802;28;20077;-68
2023/10/26 10:17:55;;;;;;;11.63;3.00;;;;;;;;;;5100306;28;20067;-70
2023/10/26 10:20:41;;;;;;;15.95;3.38;;;;;;;;;;5116058;28;20020;-70
2023/10/26 10:23:28;;;;;;;13.85;3.15;;;;;;;;;;5116431;28;20117;-71
2023/10/26 10:26:14;;;;;;;14.70;3.50;;;;;;;;;;5100607;28;20019;-71
2023/10/26 10:29:16;;;;;;;16.00;3.17;;;;;;;;;;5115363;28;20054;-70
2023/10/26 10:32:02;;;;;;;11.85;2.92;;;;;;;;;;5100059;28;20020;-71
2023/10/26 10:34:48;;;;;;;13.73;3.15;;;;;;;;;;5115310;28;20034;-70
2023/10/26 10:37:34;;;;;;;18.30;3.15;;;;;;;;;;5116847;27;20023;-69
2023/10/26 10:40:20;;;;;;;16.92;3.15;;;;;;;;;;5099694;28;20371;-71
2023/10/26 10:43:05;;;;;;;14.32;2.63;;;;;;;;;;5100481;28;20016;-71
2023/10/26 10:45:51;;;;;;;9.60;2.85;;;;;;;;;;5114982;28;20020;-69
2023/10/26 10:48:53;;;;;;;11.52;2.70;;;;;;;;;;5114509;28;20016;-70
2023/10/26 10:51:41;;;;;;;11.35;2.72;;;;;;;;;;5114113;28;20043;-70
2023/10/26 10:54:26;;;;;;;8.40;2.15;;;;;;;;;;5099679;28;20036;-70
2023/10/26 10:57:12;;;;;;;9.95;2.70;;;;;;;;;;5115459;28;20112;-71
2023/10/26 10:59:57;;;;;;;6.90;2.08;;;;;;;;;;5099598;28;20023;-70
2023/10/26 11:02:47;;;;;;;8.32;2.03;;;;;;;;;;5115634;28;20103;-70
2023/10/26 11:05:39;;;;;;;8.90;2.63;;;;;;;;;;5114479;28;20031;-71
2023/10/26 11:08:25;;;;;;;6.82;2.20;;;;;;;;;;5100218;28;20471;-69
2023/10/26 11:11:27;;;;;;;6.82;1.90;;;;;;;;;;5115691;28;20032;-70
2023/10/26 11:14:12;;;;;;;9.93;2.60;;;;;;;;;;5115250;28;20042;-70
2023/10/26 11:16:58;;;;;;;6.43;1.90;;;;;;;;;;5099096;28;20444;-70
2023/10/26 11:19:44;;;;;;;9.68;2.05;;;;;;;;;;5098880;28;20409;-71
2023/10/26 11:22:30;;;;;;;14.07;2.53;;;;;;;;;;5094741;28;20024;-70
2023/10/26 11:25:23;;;;;;;6.13;1.90;;;;;;;;;;5114752;28;20012;-71
2023/10/26 11:28:09;;;;;;;9.98;2.00;;;;;;;;;;5115200;28;20069;-69
2023/10/26 11:30:56;;;;;;;4.88;1.65;;;;;;;;;;5115036;28;20443;-70
2023/10/26 11:33:42;;;;;;;4.57;1.23;;;;;;;;;;5100714;28;20367;-70
2023/10/26 11:36:27;;;;;;;8.93;1.88;;;;;;;;;;5099243;28;20042;-72
2023/10/26 11:39:13;;;;;;;10.75;1.80;;;;;;;;;;5114953;28;20027;-72
2023/10/26 11:41:59;;;;;;;5.70;1.13;;;;;;;;;;5114670;28;20431;-70
2023/10/26 11:44:55;;;;;;;7.25;1.35;;;;;;;;;;5114202;28;20027;-71
2023/10/26 11:47:51;;;;;;;8.80;1.50;;;;;;;;;;5114583;28;20072;-70
2023/10/26 11:50:37;;;;;;;11.75;1.92;;;;;;;;;;5103245;27;20360;-70
2023/10/26 11:53:23;;;;;;;8.68;1.60;;;;;;;;;;5119271;28;20413;-69
2023/10/26 11:56:09;;;;;;;6.10;1.60;;;;;;;;;;5105381;27;20027;-70
2023/10/26 11:58:55;;;;;;;8.98;2.00;;;;;;;;;;5118643;28;20443;-70
2023/10/26 12:01:41;;;;;;;13.60;2.13;;;;;;;;;;5113914;27;20030;-71
2023/10/26 12:04:26;;;;;;;7.75;1.83;;;;;;;;;;5117732;28;20509;-71
2023/10/26 12:07:12;;;;;;;9.13;1.70;;;;;;;;;;5106806;28;20024;-71
2023/10/26 12:09:57;;;;;;;12.38;1.77;;;;;;;;;;5117331;28;20015;-70
2023/10/26 12:12:44;;;;;;;11.20;1.63;;;;;;;;;;5116960;28;20019;-71
2023/10/26 12:15:30;;;;;;;7.45;1.58;;;;;;;;;;5103207;28;20023;-71
2023/10/26 12:18:16;;;;;;;4.15;1.42;;;;;;;;;;5117744;28;20128;-71
2023/10/26 12:21:01;;;;;;;9.40;1.70;;;;;;;;;;5095232;28;20016;-71
2023/10/26 12:23:47;;;;;;;7.00;1.73;;;;;;;;;;5098528;28;20095;-71
2023/10/26 12:26:32;;;;;;;5.78;1.80;;;;;;;;;;5097642;28;20031;-71
2023/10/26 12:29:18;;;;;;;9.40;1.80;;;;;;;;;;5096341;28;20016;-71
2023/10/26 12:32:04;;;;;;;9.75;1.85;;;;;;;;;;5098046;28;20106;-70
2023/10/26 12:34:55;;;;;;;11.35;1.95;;;;;;;;;;5082760;28;20016;-69
2023/10/26 12:37:44;;;;;;;9.02;2.10;;;;;;;;;;5082587;28;20016;-70
2023/10/26 12:40:29;;;;;;;11.68;2.38;;;;;;;;;;5097939;28;20124;-71
2023/10/26 12:43:15;;;;;;;10.57;2.67;;;;;;;;;;5096621;28;20020;-72
2023/10/26 12:46:06;;;;;;;10.15;2.40;;;;;;;;;;5097811;28;20411;-69
2023/10/26 12:48:52;;;;;;;7.47;1.98;;;;;;;;;;5097320;28;20039;-71
2023/10/26 12:51:39;;;;;;;9.20;2.17;;;;;;;;;;5097347;28;20459;-72
2023/10/26 12:54:25;;;;;;;14.02;2.47;;;;;;;;;;5082362;28;20420;-72
2023/10/26 12:57:13;;;;;;;14.82;2.00;;;;;;;;;;5113574;28;20031;-71
2023/10/26 12:59:59;;;;;;;8.32;1.80;;;;;;;;;;5115580;28;20110;-72
2023/10/26 13:02:45;;;;;;;11.95;2.28;;;;;;;;;;5116032;28;20475;-72
2023/10/26 13:05:30;;;;;;;8.75;2.10;;;;;;;;;;5115015;28;20019;-71
2023/10/26 13:08:16;;;;;;;14.13;2.78;;;;;;;;;;5101703;28;20015;-73
2023/10/26 13:11:02;;;;;;;9.02;2.40;;;;;;;;;;5117261;28;20016;-73
2023/10/26 13:13:47;;;;;;;11.48;2.42;;;;;;;;;;5115430;28;20113;-72
2023/10/26 13:16:33;;;;;;;9.93;2.60;;;;;;;;;;5114948;28;20499;-71
2023/10/26 13:19:19;;;;;;;9.98;2.40;;;;;;;;;;5116085;28;20028;-72
2023/10/26 13:22:05;;;;;;;13.95;2.25;;;;;;;;;;5116321;28;20370;-72
2023/10/26 13:24:51;;;;;;;8.30;2.22;;;;;;;;;;5102165;28;20107;-73
2023/10/26 13:27:43;;;;;;;6.55;1.63;;;;;;;;;;5116467;28;20476;-71
2023/10/26 13:30:30;;;;;;;12.15;2.33;;;;;;;;;;5116036;28;20035;-72
2023/10/26 13:33:16;;;;;;;14.18;3.03;;;;;;;;;;5100480;28;20015;-72
2023/10/26 13:36:02;;;;;;;21.98;3.13;;;;;;;;;;5115801;28;20049;-71
2023/10/26 13:38:48;;;;;;;6.28;2.42;;;;;;;;;;5114032;28;20080;-71
2023/10/26 13:41:33;;;;;;;10.38;2.03;;;;;;;;;;5114892;28;20023;-71
2023/10/26 13:44:19;;;;;;;8.13;2.30;;;;;;;;;;5114157;28;20020;-71
2023/10/26 13:47:04;;;;;;;7.13;1.80;;;;;;;;;;5100060;28;20443;-73
2023/10/26 13:49:50;;;;;;;10.60;2.17;;;;;;;;;;5099651;28;20432;-72
2023/10/26 13:52:36;;;;;;;9.77;2.50;;;;;;;;;;5115051;28;20043;-70
2023/10/26 13:55:21;;;;;;;8.90;2.30;;;;;;;;;;5114350;28;20102;-72
2023/10/26 13:58:07;;;;;;;12.40;2.90;;;;;;;;;;5114578;28;20460;-72
2023/10/26 14:00:53;;;;;;;10.85;2.70;;;;;;;;;;5099592;28;20031;-71
2023/10/26 14:03:38;;;;;;;13.80;3.00;;;;;;;;;;5115403;28;20077;-72
2023/10/26 14:06:24;;;;;;;12.32;3.13;;;;;;;;;;5115031;28;20034;-72
2023/10/26 14:09:10;;;;;;;14.82;3.08;;;;;;;;;;5113124;28;20107;-74
2023/10/26 14:12:00;;;;;;;8.98;3.03;;;;;;;;;;5115962;28;20085;-73
2023/10/26 14:14:46;;;;;;;14.68;2.95;;;;;;;;;;5115020;28;20026;-72
2023/10/26 14:17:34;;;;;;;15.15;5.78;;;;;;;;;;5101096;28;20023;-74
2023/10/26 14:20:20;;;;;;;11.20;3.13;;;;;;;;;;5100038;28;20478;-72
2023/10/26 14:23:05;;;;;;;9.73;3.10;;;;;;;;;;5114381;28;20023;-71
2023/10/26 14:25:51;;;;;;;10.77;2.92;;;;;;;;;;5099947;28;20030;-71
2023/10/26 14:28:37;;;;;;;12.38;3.28;;;;;;;;;;5113957;28;20103;-73
2023/10/26 14:31:22;;;;;;;11.73;3.30;;;;;;;;;;5114137;28;20031;-72
2023/10/26 14:34:08;;;;;;;10.43;3.10;;;;;;;;;;5099835;28;20081;-73
2023/10/26 14:36:54;;;;;;;16.38;3.65;;;;;;;;;;5099760;28;20024;-74
2023/10/26 14:39:39;;;;;;;13.20;3.33;;;;;;;;;;5113563;28;20148;-71
2023/10/26 14:42:25;;;;;;;14.55;3.45;;;;;;;;;;5114651;28;20030;-72
2023/10/26 14:45:10;;;;;;;13.85;3.28;;;;;;;;;;5113489;28;20400;-72
2023/10/26 14:47:57;;;;;;;18.48;3.53;;;;;;;;;;5113926;28;20016;-72
2023/10/26 14:50:44;;;;;;;11.48;4.28;;;;;;;;;;5113063;28;20124;-72
2023/10/26 14:53:30;;;;;;;18.60;5.28;;;;;;;;;;5114784;28;20037;-71
2023/10/26 14:56:17;;;;;;;26.73;10.45;;;;;;;;;;5113144;28;20081;-73
2023/10/26 14:59:05;;;;;;;18.70;8.15;;;;;;;;;;5099151;28;20057;-71
2023/10/26 15:01:50;;;;;;;18.48;8.15;;;;;;;;;;5114149;28;20031;-71
2023/10/26 15:04:36;;;;;;;15.85;7.47;;;;;;;;;;5112488;28;20012;-71
2023/10/26 15:07:21;;;;;;;18.23;8.43;;;;;;;;;;5114158;28;20020;-73
2023/10/26 15:10:07;;;;;;;16.27;7.57;;;;;;;;;;5099473;28;20106;-73
2023/10/26 15:12:53;;;;;;;17.13;7.88;;;;;;;;;;5094399;28;20084;-72
2023/10/26 15:15:39;;;;;;;15.98;7.32;;;;;;;;;;5093899;28;20078;-71
2023/10/26 15:18:25;;;;;;;16.42;7.07;;;;;;;;;;5094793;28;20020;-73
2023/10/26 15:21:11;;;;;;;17.48;6.68;;;;;;;;;;5093937;28;20031;-73
2023/10/26 15:23:57;;;;;;;19.33;6.82;;;;;;;;;;5094428;28;20367;-71
2023/10/26 15:26:42;;;;;;;19.80;7.03;;;;;;;;;;5095278;28;20020;-73
2023/10/26 15:29:28;;;;;;;17.42;5.88;;;;;;;;;;5079838;28;20008;-73
2023/10/26 15:32:17;;;;;;;15.00;6.22;;;;;;;;;;5094669;28;20099;-72
2023/10/26 15:35:03;;;;;;;23.30;6.47;;;;;;;;;;5079783;28;20020;-72
2023/10/26 15:37:49;;;;;;;17.23;5.60;;;;;;;;;;5094806;28;20402;-71
2023/10/26 15:40:35;;;;;;;18.52;5.95;;;;;;;;;;5093853;28;20165;-73
2023/10/26 15:43:20;;;;;;;20.63;5.47;;;;;;;;;;5079316;28;20043;-72
2023/10/26 15:46:06;;;;;;;16.73;5.53;;;;;;;;;;5094072;28;20016;-75
2023/10/26 15:48:52;;;;;;;22.52;7.30;;;;;;;;;;5094579;28;20044;-73
2023/10/26 15:51:37;;;;;;;27.73;7.63;;;;;;;;;;5094937;28;20058;-71
2023/10/26 15:54:23;;;;;;;24.30;8.07;;;;;;;;;;5094021;28;20016;-72
2023/10/26 15:57:09;;;;;;;23.25;7.70;;;;;;;;;;5095291;28;20024;-71
2023/10/26 15:59:54;;;;;;;27.40;8.82;;;;;;;;;;5094571;28;20020;-73
2023/10/26 16:02:44;;;;;;;30.10;7.55;;;;;;;;;;5094868;28;20020;-73
2023/10/26 16:05:33;;;;;;;22.05;7.60;;;;;;;;;;5093367;28;20025;-73
2023/10/26 16:08:19;;;;;;;25.65;8.10;;;;;;;;;;5095744;28;20027;-73
2023/10/26 16:11:11;;;;;;;27.27;8.00;;;;;;;;;;5094603;28;20020;-70
2023/10/26 16:13:57;;;;;;;25.30;9.43;;;;;;;;;;5079566;28;20016;-72
2023/10/26 16:16:43;;;;;;;29.50;10.15;;;;;;;;;;5093822;28;20047;-71
2023/10/26 16:19:29;;;;;;;29.15;9.63;;;;;;;;;;5093719;28;20023;-72
2023/10/26 16:22:15;;;;;;;18.92;9.07;;;;;;;;;;5094561;28;20062;-70
2023/10/26 16:25:03;;;;;;;27.95;8.73;;;;;;;;;;5094919;28;20020;-71